sensor_id;sensor_type;location;lat;lon;timestamp;pressure;altitude;pressure_sealevel;temperature;humidity
20228;BME280;12195;55.790;37.572;2023-01-25T00:01:05;101335.71;;;1.54;67.69
20228;BME280;12195;55.790;37.572;2023-01-25T00:03:37;101340.06;;;1.55;67.64
20228;BME280;12195;55.790;37.572;2023-01-25T00:06:10;101338.28;;;1.49;67.91
20228;BME280;12195;55.790;37.572;2023-01-25T00:08:42;101334.82;;;1.46;68.29
20228;BME280;12195;55.790;37.572;2023-01-25T00:11:14;101338.27;;;1.48;68.12
20228;BME280;12195;55.790;37.572;2023-01-25T00:13:54;101330.47;;;1.45;68.36
20228;BME280;12195;55.790;37.572;2023-01-25T00:16:26;101327.92;;;1.48;68.04
20228;BME280;12195;55.790;37.572;2023-01-25T00:18:59;101326.19;;;1.47;68.29
20228;BME280;12195;55.790;37.572;2023-01-25T00:21:31;101332.21;;;1.47;68.37
20228;BME280;12195;55.790;37.572;2023-01-25T00:24:05;101326.19;;;1.47;68.49
20228;BME280;12195;55.790;37.572;2023-01-25T00:26:37;101325.30;;;1.45;68.84
20228;BME280;12195;55.790;37.572;2023-01-25T00:29:11;101314.11;;;1.46;69.03
20228;BME280;12195;55.790;37.572;2023-01-25T00:34:47;101312.45;;;1.57;68.34
20228;BME280;12195;55.790;37.572;2023-01-25T00:37:38;101311.56;;;1.52;68.29
20228;BME280;12195;55.790;37.572;2023-01-25T00:40:11;101303.80;;;1.52;68.29
20228;BME280;12195;55.790;37.572;2023-01-25T00:42:43;101300.31;;;1.50;68.10
20228;BME280;12195;55.790;37.572;2023-01-25T00:45:15;101296.00;;;1.49;68.28
20228;BME280;12195;55.790;37.572;2023-01-25T00:47:47;101294.26;;;1.46;68.49
20228;BME280;12195;55.790;37.572;2023-01-25T00:50:20;101287.36;;;1.45;68.67
20228;BME280;12195;55.790;37.572;2023-01-25T00:52:52;101287.36;;;1.45;68.91
20228;BME280;12195;55.790;37.572;2023-01-25T00:55:24;101281.30;;;1.40;68.79
20228;BME280;12195;55.790;37.572;2023-01-25T00:57:56;101284.73;;;1.38;68.58
20228;BME280;12195;55.790;37.572;2023-01-25T01:00:29;101281.25;;;1.36;68.76
20228;BME280;12195;55.790;37.572;2023-01-25T01:03:01;101277.80;;;1.34;68.73
20228;BME280;12195;55.790;37.572;2023-01-25T01:05:33;101278.63;;;1.33;68.82
20228;BME280;12195;55.790;37.572;2023-01-25T01:08:06;101279.55;;;1.38;67.99
20228;BME280;12195;55.790;37.572;2023-01-25T01:10:38;101276.05;;;1.34;68.05
20228;BME280;12195;55.790;37.572;2023-01-25T01:13:10;101270.86;;;1.33;67.90
20228;BME280;12195;55.790;37.572;2023-01-25T01:15:43;101257.07;;;1.31;67.53
20228;BME280;12195;55.790;37.572;2023-01-25T01:18:15;101259.66;;;1.31;66.88
20228;BME280;12195;55.790;37.572;2023-01-25T01:20:51;101271.70;;;1.26;66.36
20228;BME280;12195;55.790;37.572;2023-01-25T01:23:23;101277.66;;;1.19;66.37
20228;BME280;12195;55.790;37.572;2023-01-25T01:26:01;101267.25;;;1.10;66.77
20228;BME280;12195;55.790;37.572;2023-01-25T01:28:34;101257.75;;;1.07;67.13
20228;BME280;12195;55.790;37.572;2023-01-25T01:31:16;101253.45;;;1.11;67.06
20228;BME280;12195;55.790;37.572;2023-01-25T01:33:55;101250.92;;;1.15;66.85
20228;BME280;12195;55.790;37.572;2023-01-25T01:36:24;101245.73;;;1.17;66.82
20228;BME280;12195;55.790;37.572;2023-01-25T01:38:57;101246.66;;;1.25;66.55
20228;BME280;12195;55.790;37.572;2023-01-25T01:41:30;101244.10;;;1.28;66.53
20228;BME280;12195;55.790;37.572;2023-01-25T01:44:02;101243.27;;;1.32;66.48
20228;BME280;12195;55.790;37.572;2023-01-25T01:46:37;101233.83;;;1.38;66.12
20228;BME280;12195;55.790;37.572;2023-01-25T01:49:15;101244.23;;;1.44;65.63
20228;BME280;12195;55.790;37.572;2023-01-25T01:51:48;101231.28;;;1.43;65.71
20228;BME280;12195;55.790;37.572;2023-01-25T01:54:32;101224.38;;;1.40;65.59
20228;BME280;12195;55.790;37.572;2023-01-25T01:57:13;101227.80;;;1.41;65.75
20228;BME280;12195;55.790;37.572;2023-01-25T01:59:55;101224.38;;;1.40;65.14
20228;BME280;12195;55.790;37.572;2023-01-25T02:02:27;101222.66;;;1.44;64.57
20228;BME280;12195;55.790;37.572;2023-01-25T02:05:02;101220.02;;;1.39;64.80
20228;BME280;12195;55.790;37.572;2023-01-25T02:07:36;101224.36;;;1.39;64.85
20228;BME280;12195;55.790;37.572;2023-01-25T02:10:11;101220.05;;;1.38;64.80
20228;BME280;12195;55.790;37.572;2023-01-25T02:12:45;101223.48;;;1.38;64.70
20228;BME280;12195;55.790;37.572;2023-01-25T02:15:18;101227.80;;;1.38;64.91
20228;BME280;12195;55.790;37.572;2023-01-25T02:17:51;101225.22;;;1.38;64.91
20228;BME280;12195;55.790;37.572;2023-01-25T02:20:27;101233.83;;;1.38;65.06
20228;BME280;12195;55.790;37.572;2023-01-25T02:26:02;101230.39;;;1.41;65.29
20228;BME280;12195;55.790;37.572;2023-01-25T02:28:51;101226.11;;;1.43;65.11
20228;BME280;12195;55.790;37.572;2023-01-25T02:31:25;101230.39;;;1.41;65.15
20228;BME280;12195;55.790;37.572;2023-01-25T02:33:57;101229.53;;;1.39;65.47
20228;BME280;12195;55.790;37.572;2023-01-25T02:36:31;101233.83;;;1.38;65.46
20228;BME280;12195;55.790;37.572;2023-01-25T02:39:09;101228.66;;;1.38;65.77
20228;BME280;12195;55.790;37.572;2023-01-25T02:41:44;101230.37;;;1.39;65.98
20228;BME280;12195;55.790;37.572;2023-01-25T02:44:24;101239.89;;;1.40;65.80
20228;BME280;12195;55.790;37.572;2023-01-25T02:46:57;101245.09;;;1.42;66.19
20228;BME280;12195;55.790;37.572;2023-01-25T02:49:30;101253.70;;;1.44;66.06
20228;BME280;12195;55.790;37.572;2023-01-25T02:52:03;101242.49;;;1.45;66.04
20228;BME280;12195;55.790;37.572;2023-01-25T02:54:36;101246.84;;;1.46;65.78
20228;BME280;12195;55.790;37.572;2023-01-25T02:57:08;101239.91;;;1.45;65.83
20228;BME280;12195;55.790;37.572;2023-01-25T02:59:42;101234.73;;;1.42;65.88
20228;BME280;12195;55.790;37.572;2023-01-25T03:02:15;101247.67;;;1.42;66.19
20228;BME280;12195;55.790;37.572;2023-01-25T03:04:48;101243.36;;;1.44;66.11
20228;BME280;12195;55.790;37.572;2023-01-25T03:07:21;101239.89;;;1.43;66.23
20228;BME280;12195;55.790;37.572;2023-01-25T03:09:53;101238.20;;;1.45;66.09
20228;BME280;12195;55.790;37.572;2023-01-25T03:12:26;101232.21;;;1.52;66.17
20228;BME280;12195;55.790;37.572;2023-01-25T03:14:58;101229.58;;;1.48;66.22
20228;BME280;12195;55.790;37.572;2023-01-25T03:17:31;101224.42;;;1.49;66.21
20228;BME280;12195;55.790;37.572;2023-01-25T03:20:04;101222.70;;;1.53;65.99
20228;BME280;12195;55.790;37.572;2023-01-25T03:22:36;101217.50;;;1.50;66.14
20228;BME280;12195;55.790;37.572;2023-01-25T03:25:09;101204.58;;;1.51;66.19
20228;BME280;12195;55.790;37.572;2023-01-25T03:27:43;101208.90;;;1.54;65.80
20228;BME280;12195;55.790;37.572;2023-01-25T03:30:15;101208.90;;;1.54;65.81
20228;BME280;12195;55.790;37.572;2023-01-25T03:32:47;101213.20;;;1.50;65.99
20228;BME280;12195;55.790;37.572;2023-01-25T03:35:21;101209.73;;;1.45;66.35
20228;BME280;12195;55.790;37.572;2023-01-25T03:37:53;101209.73;;;1.45;66.66
20228;BME280;12195;55.790;37.572;2023-01-25T03:40:25;101208.87;;;1.46;66.42
20228;BME280;12195;55.790;37.572;2023-01-25T03:42:58;101202.84;;;1.46;66.42
20228;BME280;12195;55.790;37.572;2023-01-25T03:45:30;101201.11;;;1.46;66.37
20228;BME280;12195;55.790;37.572;2023-01-25T03:48:03;101208.89;;;1.49;66.35
20228;BME280;12195;55.790;37.572;2023-01-25T03:50:35;101213.22;;;1.52;66.02
20228;BME280;12195;55.790;37.572;2023-01-25T03:53:25;101208.00;;;1.47;66.19
20228;BME280;12195;55.790;37.572;2023-01-25T03:56:04;101207.14;;;1.45;66.16
20228;BME280;12195;55.790;37.572;2023-01-25T03:58:40;101203.67;;;1.45;66.32
20228;BME280;12195;55.790;37.572;2023-01-25T04:01:12;101213.19;;;1.44;66.61
20228;BME280;12195;55.790;37.572;2023-01-25T04:03:44;101209.75;;;1.47;66.77
20228;BME280;12195;55.790;37.572;2023-01-25T04:06:18;101210.61;;;1.46;66.68
20228;BME280;12195;55.790;37.572;2023-01-25T04:08:50;101208.91;;;1.51;66.28
20228;BME280;12195;55.790;37.572;2023-01-25T04:11:23;101204.56;;;1.50;66.14
20228;BME280;12195;55.790;37.572;2023-01-25T04:13:56;101205.41;;;1.47;66.53
20228;BME280;12195;55.790;37.572;2023-01-25T04:16:30;101205.44;;;1.46;66.60
20228;BME280;12195;55.790;37.572;2023-01-25T04:19:20;101200.26;;;1.46;66.59
20228;BME280;12195;55.790;37.572;2023-01-25T04:21:53;101206.25;;;1.43;66.77
20228;BME280;12195;55.790;37.572;2023-01-25T04:24:26;101206.25;;;1.43;67.01
20228;BME280;12195;55.790;37.572;2023-01-25T04:27:00;101200.20;;;1.40;66.86
20228;BME280;12195;55.790;37.572;2023-01-25T04:29:34;101198.47;;;1.37;66.74
20228;BME280;12195;55.790;37.572;2023-01-25T04:32:09;101208.80;;;1.36;66.59
20228;BME280;12195;55.790;37.572;2023-01-25T04:34:42;101201.02;;;1.33;66.65
20228;BME280;12195;55.790;37.572;2023-01-25T04:37:16;101206.20;;;1.34;66.72
20228;BME280;12195;55.790;37.572;2023-01-25T04:39:56;101197.54;;;1.28;66.76
20228;BME280;12195;55.790;37.572;2023-01-25T04:42:30;101213.06;;;1.28;66.74
20228;BME280;12195;55.790;37.572;2023-01-25T04:45:03;101214.77;;;1.24;66.78
20228;BME280;12195;55.790;37.572;2023-01-25T04:47:35;101215.66;;;1.29;66.44
20228;BME280;12195;55.790;37.572;2023-01-25T04:50:08;101207.03;;;1.30;66.34
20228;BME280;12195;55.790;37.572;2023-01-25T04:52:40;101208.75;;;1.27;67.02
20228;BME280;12195;55.790;37.572;2023-01-25T04:55:13;101211.42;;;1.43;65.73
20228;BME280;12195;55.790;37.572;2023-01-25T04:57:48;101222.60;;;1.35;66.15
20228;BME280;12195;55.790;37.572;2023-01-25T05:00:25;101219.98;;;1.27;66.36
20228;BME280;12195;55.790;37.572;2023-01-25T05:02:59;101220.79;;;1.25;66.59
20228;BME280;12195;55.790;37.572;2023-01-25T05:05:32;101229.45;;;1.28;66.69
20228;BME280;12195;55.790;37.572;2023-01-25T05:08:06;101224.30;;;1.30;66.45
20228;BME280;12195;55.790;37.572;2023-01-25T05:10:39;101223.44;;;1.31;66.86
20228;BME280;12195;55.790;37.572;2023-01-25T05:13:30;101208.77;;;1.31;66.10
20228;BME280;12195;55.790;37.572;2023-01-25T05:16:05;101216.53;;;1.33;65.88
20228;BME280;12195;55.790;37.572;2023-01-25T05:18:39;101213.11;;;1.37;65.98
20228;BME280;12195;55.790;37.572;2023-01-25T05:21:15;101208.77;;;1.28;65.54
20228;BME280;12195;55.790;37.572;2023-01-25T05:24:06;101214.73;;;1.20;65.57
20228;BME280;12195;55.790;37.572;2023-01-25T05:26:39;101211.22;;;1.12;65.89
20228;BME280;12195;55.790;37.572;2023-01-25T05:29:35;101215.46;;;1.04;66.36
20228;BME280;12195;55.790;37.572;2023-01-25T05:32:16;101224.05;;;1.00;66.39
20228;BME280;12195;55.790;37.572;2023-01-25T05:34:49;101221.45;;;0.95;66.56
20228;BME280;12195;55.790;37.572;2023-01-25T05:37:23;101225.73;;;0.95;67.01
20228;BME280;12195;55.790;37.572;2023-01-25T05:39:57;101234.38;;;0.98;66.87
20228;BME280;12195;55.790;37.572;2023-01-25T05:42:31;101225.79;;;1.02;66.69
20228;BME280;12195;55.790;37.572;2023-01-25T05:45:04;101221.48;;;1.01;66.98
20228;BME280;12195;55.790;37.572;2023-01-25T05:47:39;101208.60;;;1.06;67.10
20228;BME280;12195;55.790;37.572;2023-01-25T05:50:12;101213.77;;;1.09;67.13
20228;BME280;12195;55.790;37.572;2023-01-25T05:52:45;101205.20;;;1.11;67.06
20228;BME280;12195;55.790;37.572;2023-01-25T05:55:17;101202.73;;;1.29;66.78
20228;BME280;12195;55.790;37.572;2023-01-25T05:57:53;101203.58;;;1.27;66.49
20228;BME280;12195;55.790;37.572;2023-01-25T06:00:24;101205.27;;;1.22;66.34
20228;BME280;12195;55.790;37.572;2023-01-25T06:03:00;101202.69;;;1.22;66.19
20228;BME280;12195;55.790;37.572;2023-01-25T06:05:36;101200.95;;;1.22;66.54
20228;BME280;12195;55.790;37.572;2023-01-25T06:08:09;101213.88;;;1.22;66.61
20228;BME280;12195;55.790;37.572;2023-01-25T06:10:42;101215.63;;;1.23;66.61
20228;BME280;12195;55.790;37.572;2023-01-25T06:13:15;101206.15;;;1.25;66.24
20228;BME280;12195;55.790;37.572;2023-01-25T06:15:52;101214.81;;;1.32;65.82
20228;BME280;12195;55.790;37.572;2023-01-25T06:18:43;101218.28;;;1.32;65.54
20228;BME280;12195;55.790;37.572;2023-01-25T06:21:20;101211.38;;;1.34;65.28
20228;BME280;12195;55.790;37.572;2023-01-25T06:23:52;101216.53;;;1.33;65.67
20228;BME280;12195;55.790;37.572;2023-01-25T06:26:25;101218.28;;;1.32;65.63
20228;BME280;12195;55.790;37.572;2023-01-25T06:28:58;101207.08;;;1.35;65.57
20228;BME280;12195;55.790;37.572;2023-01-25T06:31:31;101206.25;;;1.39;65.29
20228;BME280;12195;55.790;37.572;2023-01-25T06:34:04;101206.27;;;1.42;65.69
20228;BME280;12195;55.790;37.572;2023-01-25T06:36:38;101207.16;;;1.47;64.59
20228;BME280;12195;55.790;37.572;2023-01-25T06:39:11;101214.93;;;1.51;64.01
20228;BME280;12195;55.790;37.572;2023-01-25T06:41:43;101214.94;;;1.53;63.50
20228;BME280;12195;55.790;37.572;2023-01-25T06:44:16;101213.14;;;1.40;64.29
20228;BME280;12195;55.790;37.572;2023-01-25T06:46:48;101220.86;;;1.35;64.74
20228;BME280;12195;55.790;37.572;2023-01-25T06:49:21;101210.53;;;1.37;64.21
20228;BME280;12195;55.790;37.572;2023-01-25T06:51:54;101222.63;;;1.41;63.91
20228;BME280;12195;55.790;37.572;2023-01-25T06:54:28;101224.31;;;1.34;64.07
20228;BME280;12195;55.790;37.572;2023-01-25T06:57:01;101220.03;;;1.36;63.77
20228;BME280;12195;55.790;37.572;2023-01-25T06:59:34;101227.77;;;1.33;63.89
20228;BME280;12195;55.790;37.572;2023-01-25T07:02:06;101230.34;;;1.33;63.60
20228;BME280;12195;55.790;37.572;2023-01-25T07:04:38;101226.94;;;1.39;63.60
20228;BME280;12195;55.790;37.572;2023-01-25T07:07:11;101226.02;;;1.31;63.99
20228;BME280;12195;55.790;37.572;2023-01-25T07:09:43;101224.30;;;1.33;64.33
20228;BME280;12195;55.790;37.572;2023-01-25T07:12:16;101220.88;;;1.34;64.45
20228;BME280;12195;55.790;37.572;2023-01-25T07:14:50;101226.08;;;1.40;64.76
20228;BME280;12195;55.790;37.572;2023-01-25T07:17:22;101216.60;;;1.43;64.66
20228;BME280;12195;55.790;37.572;2023-01-25T07:19:55;101208.03;;;1.50;64.28
20228;BME280;12195;55.790;37.572;2023-01-25T07:22:28;101214.05;;;1.48;64.68
20228;BME280;12195;55.790;37.572;2023-01-25T07:25:01;101210.60;;;1.49;64.71
20228;BME280;12195;55.790;37.572;2023-01-25T07:27:33;101208.05;;;1.53;64.94
20228;BME280;12195;55.790;37.572;2023-01-25T07:30:06;101205.50;;;1.61;64.96
20228;BME280;12195;55.790;37.572;2023-01-25T07:32:38;101205.54;;;1.70;64.77
20228;BME280;12195;55.790;37.572;2023-01-25T07:35:10;101197.81;;;1.74;64.54
20228;BME280;12195;55.790;37.572;2023-01-25T07:37:43;101190.92;;;1.79;64.39
20228;BME280;12195;55.790;37.572;2023-01-25T07:40:15;101203.92;;;1.87;64.08
20228;BME280;12195;55.790;37.572;2023-01-25T07:42:48;101193.56;;;1.87;63.81
20228;BME280;12195;55.790;37.572;2023-01-25T07:45:21;101196.14;;;1.85;63.92
20228;BME280;12195;55.790;37.572;2023-01-25T07:47:56;101203.91;;;1.90;64.21
20228;BME280;12195;55.790;37.572;2023-01-25T07:50:29;101203.06;;;1.89;64.12
20228;BME280;12195;55.790;37.572;2023-01-25T07:53:01;101196.17;;;1.94;64.46
20228;BME280;12195;55.790;37.572;2023-01-25T07:55:34;101196.18;;;2.00;64.69
20228;BME280;12195;55.790;37.572;2023-01-25T07:58:09;101197.06;;;2.07;64.41
20228;BME280;12195;55.790;37.572;2023-01-25T08:00:42;101196.23;;;2.08;63.61
20228;BME280;12195;55.790;37.572;2023-01-25T08:03:14;101197.08;;;2.10;64.02
20228;BME280;12195;55.790;37.572;2023-01-25T08:05:47;101197.10;;;2.13;63.99
20228;BME280;12195;55.790;37.572;2023-01-25T08:08:19;101196.27;;;2.20;63.89
20228;BME280;12195;55.790;37.572;2023-01-25T08:10:52;101200.58;;;2.25;63.86
20228;BME280;12195;55.790;37.572;2023-01-25T08:13:25;101191.95;;;2.25;63.06
20228;BME280;12195;55.790;37.572;2023-01-25T08:15:58;101196.28;;;2.27;62.90
20228;BME280;12195;55.790;37.572;2023-01-25T08:18:31;101191.09;;;2.26;63.47
20228;BME280;12195;55.790;37.572;2023-01-25T08:21:06;101196.29;;;2.29;63.44
20228;BME280;12195;55.790;37.572;2023-01-25T08:23:38;101193.70;;;2.29;63.05
20228;BME280;12195;55.790;37.572;2023-01-25T08:26:12;101198.00;;;2.28;62.67
20228;BME280;12195;55.790;37.572;2023-01-25T08:28:45;101192.80;;;2.19;62.86
20228;BME280;12195;55.790;37.572;2023-01-25T08:31:20;101193.68;;;2.20;63.58
20228;BME280;12195;55.790;37.572;2023-01-25T08:33:53;101190.20;;;2.18;63.53
20228;BME280;12195;55.790;37.572;2023-01-25T08:36:26;101184.17;;;2.23;63.01
20228;BME280;12195;55.790;37.572;2023-01-25T08:39:02;101185.05;;;2.22;62.88
20228;BME280;12195;55.790;37.572;2023-01-25T08:41:34;101186.76;;;2.22;63.04
20228;BME280;12195;55.790;37.572;2023-01-25T08:44:07;101183.31;;;2.20;63.30
20228;BME280;12195;55.790;37.572;2023-01-25T08:46:40;101174.67;;;2.21;63.65
20228;BME280;12195;55.790;37.572;2023-01-25T08:49:12;101163.45;;;2.25;63.43
20228;BME280;12195;55.790;37.572;2023-01-25T08:51:45;101170.37;;;2.27;63.19
20228;BME280;12195;55.790;37.572;2023-01-25T08:54:18;101172.97;;;2.29;63.12
20228;BME280;12195;55.790;37.572;2023-01-25T08:56:50;101167.80;;;2.32;63.36
20228;BME280;12195;55.790;37.572;2023-01-25T08:59:22;101164.34;;;2.33;63.33
20228;BME280;12195;55.790;37.572;2023-01-25T09:01:54;101153.10;;;2.34;63.29
20228;BME280;12195;55.790;37.572;2023-01-25T09:04:28;101147.92;;;2.34;63.78
20228;BME280;12195;55.790;37.572;2023-01-25T09:07:01;101153.97;;;2.39;63.81
20228;BME280;12195;55.790;37.572;2023-01-25T09:09:34;101145.35;;;2.47;63.38
20228;BME280;12195;55.790;37.572;2023-01-25T09:12:14;101136.70;;;2.47;63.15
20228;BME280;12195;55.790;37.572;2023-01-25T09:14:42;101141.02;;;2.49;63.47
20228;BME280;12195;55.790;37.572;2023-01-25T09:17:14;101134.97;;;2.52;62.90
20228;BME280;12195;55.790;37.572;2023-01-25T09:19:47;101128.92;;;2.56;62.64
20228;BME280;12195;55.790;37.572;2023-01-25T09:22:19;101126.34;;;2.51;62.74
20228;BME280;12195;55.790;37.572;2023-01-25T09:24:52;101124.59;;;2.52;62.45
20228;BME280;12195;55.790;37.572;2023-01-25T09:27:24;101117.70;;;2.51;62.82
20228;BME280;12195;55.790;37.572;2023-01-25T09:29:56;101125.48;;;2.52;62.77
20228;BME280;12195;55.790;37.572;2023-01-25T09:32:31;101110.80;;;2.53;63.10
20228;BME280;12195;55.790;37.572;2023-01-25T09:35:04;101103.88;;;2.58;62.74
20228;BME280;12195;55.790;37.572;2023-01-25T09:37:37;101109.92;;;2.63;62.46
20228;BME280;12195;55.790;37.572;2023-01-25T09:40:16;101096.09;;;2.67;61.76
20228;BME280;12195;55.790;37.572;2023-01-25T09:43:04;101091.78;;;2.66;62.02
20228;BME280;12195;55.790;37.572;2023-01-25T09:45:36;101090.03;;;2.68;62.28
20228;BME280;12195;55.790;37.572;2023-01-25T09:48:27;101084.84;;;2.66;61.92
20228;BME280;12195;55.790;37.572;2023-01-25T09:51:14;101074.48;;;2.66;62.11
20228;BME280;12195;55.790;37.572;2023-01-25T09:53:55;101067.57;;;2.65;61.64
20228;BME280;12195;55.790;37.572;2023-01-25T09:56:29;101061.55;;;2.65;61.81
20228;BME280;12195;55.790;37.572;2023-01-25T09:59:05;101051.16;;;2.60;62.08
20228;BME280;12195;55.790;37.572;2023-01-25T10:01:47;101062.41;;;2.58;61.69
20228;BME280;12195;55.790;37.572;2023-01-25T10:04:24;101064.12;;;2.57;62.75
20228;BME280;12195;55.790;37.572;2023-01-25T10:07:05;101055.50;;;2.55;62.71
20228;BME280;12195;55.790;37.572;2023-01-25T10:12:26;101053.78;;;2.54;62.51
20228;BME280;12195;55.790;37.572;2023-01-25T10:14:59;101039.94;;;2.54;62.46
20228;BME280;12195;55.790;37.572;2023-01-25T10:17:36;101042.53;;;2.55;62.56
20228;BME280;12195;55.790;37.572;2023-01-25T10:20:24;101041.66;;;2.53;62.55
20228;BME280;12195;55.790;37.572;2023-01-25T10:25:34;101052.91;;;2.54;62.77
20228;BME280;12195;55.790;37.572;2023-01-25T10:31:17;101050.30;;;2.51;63.05
20228;BME280;12195;55.790;37.572;2023-01-25T10:33:50;101053.77;;;2.48;63.26
20228;BME280;12195;55.790;37.572;2023-01-25T10:36:33;101052.05;;;2.49;62.79
20228;BME280;12195;55.790;37.572;2023-01-25T10:38:59;101048.57;;;2.44;62.58
20228;BME280;12195;55.790;37.572;2023-01-25T10:41:41;101041.66;;;2.40;62.99
20228;BME280;12195;55.790;37.572;2023-01-25T10:44:16;101032.16;;;2.37;63.34
20228;BME280;12195;55.790;37.572;2023-01-25T10:47:03;101039.95;;;2.40;63.16
20228;BME280;12195;55.790;37.572;2023-01-25T10:49:46;101032.16;;;2.37;63.60
20228;BME280;12195;55.790;37.572;2023-01-25T10:52:23;101026.13;;;2.34;63.37
20228;BME280;12195;55.790;37.572;2023-01-25T10:55:06;101030.47;;;2.32;63.12
20228;BME280;12195;55.790;37.572;2023-01-25T10:57:57;101018.34;;;2.31;62.91
20228;BME280;12195;55.790;37.572;2023-01-25T11:00:39;101010.60;;;2.16;63.14
20228;BME280;12195;55.790;37.572;2023-01-25T11:03:21;101010.59;;;2.13;63.56
20228;BME280;12195;55.790;37.572;2023-01-25T11:05:55;101004.54;;;2.12;64.27
20228;BME280;12195;55.790;37.572;2023-01-25T11:11:33;101002.80;;;2.43;63.76
20228;BME280;12195;55.790;37.572;2023-01-25T11:14:16;101003.66;;;2.39;63.41
20228;BME280;12195;55.790;37.572;2023-01-25T11:16:48;100994.17;;;2.38;63.15
20228;BME280;12195;55.790;37.572;2023-01-25T11:19:35;101008.00;;;2.37;63.13
20228;BME280;12195;55.790;37.572;2023-01-25T11:22:21;100993.32;;;2.33;62.84
20228;BME280;12195;55.790;37.572;2023-01-25T11:24:56;100996.75;;;2.35;62.90
20228;BME280;12195;55.790;37.572;2023-01-25T11:27:29;100984.68;;;2.22;62.37
20228;BME280;12195;55.790;37.572;2023-01-25T11:30:09;100979.52;;;2.16;62.26
20228;BME280;12195;55.790;37.572;2023-01-25T11:32:41;100981.23;;;2.14;62.30
20228;BME280;12195;55.790;37.572;2023-01-25T11:35:16;100983.84;;;2.08;62.91
20228;BME280;12195;55.790;37.572;2023-01-25T11:38:12;100970.88;;;2.05;62.76
20228;BME280;12195;55.790;37.572;2023-01-25T11:46:35;100960.52;;;2.08;61.57
20228;BME280;12195;55.790;37.572;2023-01-25T11:49:17;100969.13;;;2.07;61.70
20228;BME280;12195;55.790;37.572;2023-01-25T12:11:44;100961.33;;;2.44;60.14
20228;BME280;12195;55.790;37.572;2023-01-25T12:14:19;100965.67;;;2.42;59.48
20228;BME280;12195;55.790;37.572;2023-01-25T12:22:52;100950.13;;;2.27;59.13
20228;BME280;12195;55.790;37.572;2023-01-25T12:28:19;100955.33;;;2.14;60.11
20228;BME280;12195;55.790;37.572;2023-01-25T12:31:09;100952.73;;;2.11;60.15
20228;BME280;12195;55.790;37.572;2023-01-25T12:33:46;100950.14;;;2.11;60.23
20228;BME280;12195;55.790;37.572;2023-01-25T12:39:07;100938.06;;;2.13;59.92
20228;BME280;12195;55.790;37.572;2023-01-25T12:41:56;100940.66;;;2.16;59.88
20228;BME280;12195;55.790;37.572;2023-01-25T12:50:37;100927.70;;;2.13;60.29
20228;BME280;12195;55.790;37.572;2023-01-25T12:53:32;100918.19;;;2.19;59.33
20228;BME280;12195;55.790;37.572;2023-01-25T12:56:10;100921.66;;;2.14;59.60
20228;BME280;12195;55.790;37.572;2023-01-25T12:59:00;100921.65;;;2.12;59.54
20228;BME280;12195;55.790;37.572;2023-01-25T13:01:54;100922.52;;;2.10;59.82
20228;BME280;12195;55.790;37.572;2023-01-25T13:07:15;100927.72;;;2.04;60.44
20228;BME280;12195;55.790;37.572;2023-01-25T13:10:02;100929.44;;;2.05;60.14
20228;BME280;12195;55.790;37.572;2023-01-25T13:12:54;100918.23;;;2.00;60.26
20228;BME280;12195;55.790;37.572;2023-01-25T13:15:35;100910.45;;;1.95;60.70
20228;BME280;12195;55.790;37.572;2023-01-25T13:21:07;100907.87;;;1.91;61.12
20228;BME280;12195;55.790;37.572;2023-01-25T13:23:44;100907.86;;;1.94;60.97
20228;BME280;12195;55.790;37.572;2023-01-25T13:28:57;100900.12;;;1.91;60.93
20228;BME280;12195;55.790;37.572;2023-01-25T13:31:43;100892.34;;;1.88;61.45
20228;BME280;12195;55.790;37.572;2023-01-25T13:37:22;100869.88;;;1.91;61.16
20228;BME280;12195;55.790;37.572;2023-01-25T13:40:26;100873.34;;;1.86;61.33
20228;BME280;12195;55.790;37.572;2023-01-25T13:42:40;100857.83;;;1.80;61.64
20228;BME280;12195;55.790;37.572;2023-01-25T13:45:14;100859.53;;;1.78;61.67
20228;BME280;12195;55.790;37.572;2023-01-25T13:48:11;100850.92;;;1.71;62.22
20228;BME280;12195;55.790;37.572;2023-01-25T13:50:49;100847.48;;;1.68;62.10
20228;BME280;12195;55.790;37.572;2023-01-25T13:53:21;100840.58;;;1.62;62.53
20228;BME280;12195;55.790;37.572;2023-01-25T13:55:55;100841.45;;;1.60;62.77
20228;BME280;12195;55.790;37.572;2023-01-25T13:58:31;100835.39;;;1.58;63.21
20228;BME280;12195;55.790;37.572;2023-01-25T14:01:05;100835.40;;;1.62;62.84
20228;BME280;12195;55.790;37.572;2023-01-25T14:03:46;100834.52;;;1.62;62.97
20228;BME280;12195;55.790;37.572;2023-01-25T14:08:56;100827.63;;;1.58;63.63
20228;BME280;12195;55.790;37.572;2023-01-25T14:11:30;100821.61;;;1.57;63.39
20228;BME280;12195;55.790;37.572;2023-01-25T14:14:20;100814.71;;;1.53;63.49
20228;BME280;12195;55.790;37.572;2023-01-25T14:17:18;100813.83;;;1.51;63.83
20228;BME280;12195;55.790;37.572;2023-01-25T14:19:55;100822.46;;;1.49;64.24
20228;BME280;12195;55.790;37.572;2023-01-25T14:22:28;100819.03;;;1.47;64.38
20228;BME280;12195;55.790;37.572;2023-01-25T14:27:48;100821.61;;;1.44;65.03
20228;BME280;12195;55.790;37.572;2023-01-25T14:30:32;100828.53;;;1.42;65.23
20228;BME280;12195;55.790;37.572;2023-01-25T14:35:54;100812.98;;;1.49;65.10
20228;BME280;12195;55.790;37.572;2023-01-25T14:38:34;100809.53;;;1.49;64.87
20228;BME280;12195;55.790;37.572;2023-01-25T14:43:50;100807.81;;;1.51;64.55
20228;BME280;12195;55.790;37.572;2023-01-25T14:57:26;100828.52;;;1.49;64.42
20228;BME280;12195;55.790;37.572;2023-01-25T14:59:56;100825.08;;;1.46;64.12
20228;BME280;12195;55.790;37.572;2023-01-25T15:02:51;100828.52;;;1.40;64.69
20228;BME280;12195;55.790;37.572;2023-01-25T15:05:32;100817.29;;;1.37;64.60
20228;BME280;12195;55.790;37.572;2023-01-25T15:10:51;100838.01;;;1.34;65.22